Have a Safe July 4th! 

Flight Track Log - Related Links

Times and Time Zones

All times are in EST time to prevent confusion due to time zone crossing. See the N888FM flight status page for this flight to view local times or setup timezone preferences in your user account.

Time Position Orientation Groundspeed Altitude Reporting Facility
EST Latitude Longitude Course Direction KTS MPH feet Rate Location/Type
Sat 07:56:58 AM 42.1914 -75.9314 203° Southwest 165 190 26,000  Level New York Center
Sat 07:58:00 AM 42.1564 -75.9542 206° Southwest 148 170 4,900 -9,805 Descending New York Center
Sat 07:59:01 AM 42.1136 -75.9831 207° Southwest 163 188 5,900 976 Climbing New York Center
Sat 08:00:03 AM 42.0644 -76.0139 205° Southwest 188 216 6,900 1,016 Climbing New York Center
Sat 08:01:05 AM 42.0078 -76.0489 205° Southwest 197 227 8,000 1,073 Climbing New York Center
Sat 08:02:00 AM 41.8956 -76.2451 203° Southwest  Level FlightAware Approximate
Sat 08:02:06 AM 41.9556 -76.0819 205° Southwest 197 227 9,100  Level New York Center
Sat 08:03:07 AM 41.9019 -76.1167 206° Southwest 202 232 10,100 1,024 Climbing New York Center
Sat 08:04:09 AM 41.8492 -76.1503 205° Southwest 203 234 11,200 1,024 Climbing New York Center
Sat 08:05:10 AM 41.7944 -76.1847 205° Southwest 206 237 12,200 1,024 Climbing New York Center
Sat 08:06:12 AM 41.7436 -76.2172 206° Southwest 208 239 13,300 1,016 Climbing New York Center
Sat 08:07:14 AM 41.6900 -76.2508 205° Southwest 207 238 14,300 1,024 Climbing New York Center
Sat 08:08:15 AM 41.6369 -76.2833 205° Southwest 205 236 15,400 1,024 Climbing New York Center
Sat 08:09:17 AM 41.5844 -76.3175 206° Southwest 204 235 16,400 976 Climbing New York Center
Sat 08:10:18 AM 41.5350 -76.3467 204° Southwest 203 234 17,400 1,122 Climbing New York Center
Sat 08:11:20 AM 41.4844 -76.3789 206° Southwest 196 226 18,700 1,122 Climbing New York Center
Sat 08:12:21 AM 41.4381 -76.4081 205° Southwest 195 224 19,700 976 Climbing New York Center
Sat 08:13:23 AM 41.3919 -76.4369 205° Southwest 187 215 20,700 976 Climbing New York Center
Sat 08:14:24 AM 41.3478 -76.4647 205° Southwest 181 208 21,700 1,073 Climbing New York Center
Sat 08:15:26 AM 41.2958 -76.4972 205° Southwest 176 203 22,900 1,073 Climbing New York Center
Sat 08:16:27 AM 41.2531 -76.5233 205° Southwest 173 199 23,900 976 Climbing New York Center
Sat 08:17:29 AM 41.2111 -76.5492 205° Southwest 169 194 24,900 878 Climbing New York Center
Sat 08:18:30 AM 41.1686 -76.5750 205° Southwest 169 194 25,700 537 Climbing New York Center
Sat 08:19:32 AM 41.1247 -76.6036 206° Southwest 174 200 26,000 146 Climbing New York Center
Sat 08:20:33 AM 41.0753 -76.6331 204° Southwest 194 223 26,000  Level New York Center
Sat 08:21:35 AM 41.0244 -76.6661 206° Southwest 201 231 26,000  Level New York Center
Sat 08:22:36 AM 40.9578 -76.7019 202° Southwest 214 246 26,000  Level New York Center
Sat 08:23:38 AM 40.8989 -76.7311 201° Southwest 225 259 26,000  Level New York Center
Sat 08:24:39 AM 40.8406 -76.7600 201° Southwest 224 258 26,000  Level New York Center
Sat 08:25:41 AM 40.7811 -76.7903 201° Southwest 226 260 26,000  Level New York Center
Sat 08:26:42 AM 40.7233 -76.8203 201° Southwest 226 260 26,000  Level New York Center
Sat 08:27:44 AM 40.6636 -76.8511 201° Southwest 227 261 26,000  Level New York Center
Sat 08:28:45 AM 40.6053 -76.8817 202° Southwest 227 261 26,000  Level New York Center
Sat 08:29:47 AM 40.5464 -76.9108 201° Southwest 227 261 26,000  Level New York Center
Sat 08:30:48 AM 40.4767 -76.9464 201° Southwest 226 260 26,000  Level New York Center
Sat 08:31:50 AM 40.4175 -76.9753 200° South 226 260 26,000  Level New York Center
Sat 08:32:51 AM 40.3589 -77.0047 201° Southwest 226 260 26,000  Level New York Center
Sat 08:33:53 AM 40.3003 -77.0350 202° Southwest 226 260 26,000  Level New York Center
Sat 08:34:54 AM 40.2400 -77.0647 201° Southwest 228 262 26,000  Level New York Center
Sat 08:35:56 AM 40.1811 -77.0936 201° Southwest 228 262 26,000  Level New York Center
Sat 08:36:57 AM 40.1181 -77.1372 208° Southwest 225 259 26,000  Level New York Center
Sat 08:37:59 AM 40.0650 -77.1764 209° Southwest 220 253 26,000  Level New York Center
Sat 08:39:00 AM 40.0122 -77.2175 211° Southwest 220 253 26,000  Level New York Center
Sat 08:40:02 AM 39.9600 -77.2569 210° Southwest 220 253 26,000  Level New York Center
Sat 08:41:03 AM 39.9064 -77.2986 211° Southwest 222 255 26,000  Level New York Center
Sat 08:42:05 AM 39.8542 -77.3381 210° Southwest 217 250 26,000  Level New York Center
Sat 08:43:06 AM 39.8006 -77.3781 210° Southwest 218 251 26,000  Level New York Center
Sat 08:44:07 AM 39.7475 -77.4197 211° Southwest 221 254 26,000 49 Level New York Center
Sat 08:45:09 AM 39.6822 -77.4672 209° Southwest 223 257 26,100 390 Climbing New York Center
Sat 08:46:10 AM 39.6322 -77.5050 210° Southwest 209 241 26,800 537 Climbing New York Center
Sat 08:47:12 AM 39.5825 -77.5428 210° Southwest 208 239 27,200 439 Climbing New York Center
Sat 08:48:13 AM 39.5356 -77.5833 214° Southwest 204 235 27,700 329 Climbing New York Center
Sat 08:49:38 AM 39.4678 -77.6317 209° Southwest 199 229 28,000 124 Climbing Washington Center
Sat 08:50:38 AM 39.4169 -77.6697 210° Southwest 206 237 28,000  Level Washington Center
Sat 08:51:42 AM 39.3647 -77.7100 211° Southwest 213 245 28,000  Level Washington Center
Sat 08:52:42 AM 39.3111 -77.7483 209° Southwest 217 250 28,000  Level Washington Center
Sat 08:53:43 AM 39.2572 -77.7889 210° Southwest 222 255 28,000  Level Washington Center
Sat 08:54:47 AM 39.1936 -77.8369 210° Southwest 222 255 28,000  Level Washington Center
Sat 08:55:47 AM 39.1394 -77.8764 209° Southwest 222 255 28,000  Level Washington Center
Sat 08:56:51 AM 39.0872 -77.9147 210° Southwest 222 255 28,000  Level Washington Center
Sat 08:57:51 AM 39.0347 -77.9550 211° Southwest 221 254 28,000  Level Washington Center
Sat 08:58:56 AM 38.9806 -77.9936 209° Southwest 222 255 28,000  Level Washington Center
Sat 08:59:57 AM 38.9167 -78.0411 210° Southwest 222 255 28,000  Level Washington Center
Sat 09:00:58 AM 38.8628 -78.0808 210° Southwest 223 257 28,000  Level Washington Center
Sat 09:02:01 AM 38.8089 -78.1206 210° Southwest 223 257 28,000  Level Washington Center
Sat 09:03:02 AM 38.7547 -78.1600 210° Southwest 224 258 28,000  Level Washington Center
Sat 09:04:06 AM 38.7000 -78.2003 210° Southwest 225 259 28,000  Level Washington Center
Sat 09:05:07 AM 38.6353 -78.2478 210° Southwest 226 260 28,000  Level Washington Center
Sat 09:06:08 AM 38.5811 -78.2878 210° Southwest 226 260 28,000  Level Washington Center
Sat 09:07:12 AM 38.5269 -78.3264 209° Southwest 225 259 28,000  Level Washington Center
Sat 09:08:14 AM 38.4731 -78.3667 210° Southwest 225 259 28,000  Level Washington Center
Sat 09:09:16 AM 38.4189 -78.4058 210° Southwest 225 259 28,000  Level Washington Center
Sat 09:10:17 AM 38.3653 -78.4453 210° Southwest 225 259 28,000 -48 Level Washington Center
Sat 09:11:20 AM 38.3003 -78.4919 209° Southwest 224 258 27,900 -581 Descending Washington Center
Sat 09:12:21 AM 38.2425 -78.5344 210° Southwest 234 269 26,800 -1,016 Descending Washington Center
Sat 09:13:24 AM 38.1803 -78.5783 209° Southwest 243 280 25,800 -952 Descending Washington Center
Sat 09:14:27 AM 38.1217 -78.6211 210° Southwest 245 282 24,800 -878 Descending Washington Center
Sat 09:15:27 AM 38.0633 -78.6611 208° Southwest 245 282 24,000 -387 Descending Washington Center
Sat 09:16:31 AM 37.9969 -78.7100 210° Southwest 241 277 24,000  Level Washington Center
Sat 09:17:31 AM 37.9419 -78.7500 210° Southwest 235 270 24,000  Level Washington Center
Sat 09:18:33 AM 37.8867 -78.7892 209° Southwest 233 268 24,000  Level Washington Center
Sat 09:19:37 AM 37.8322 -78.8286 210° Southwest 233 268 24,000  Level Washington Center
Sat 09:20:37 AM 37.7653 -78.8753 209° Southwest 233 268 24,000  Level Washington Center
Sat 09:21:41 AM 37.7100 -78.9150 210° Southwest 234 269 24,000  Level Washington Center
Sat 09:22:42 AM 37.6556 -78.9533 209° Southwest 229 264 24,000  Level Washington Center
Sat 09:23:45 AM 37.6008 -78.9922 209° Southwest 230 265 24,000  Level Washington Center
Sat 09:24:46 AM 37.5361 -79.0389 210° Southwest 228 262 24,000  Level Washington Center
Sat 09:25:49 AM 37.4822 -79.0772 209° Southwest 226 260 24,000  Level Washington Center
Sat 09:26:49 AM 37.4286 -79.1136 208° Southwest 224 258 24,000  Level Washington Center
Sat 09:27:54 AM 37.3731 -79.1528 209° Southwest 227 261 24,000 -288 Level Washington Center
Sat 09:28:54 AM 37.3050 -79.2006 209° Southwest 235 270 23,400 -780 Descending Washington Center
Sat 09:29:57 AM 37.2461 -79.2425 210° Southwest 245 282 22,400 -1,113 Descending Washington Center
Sat 09:30:58 AM 37.1878 -79.2789 206° Southwest 243 280 21,100 -1,248 Descending Washington Center
Sat 09:32:02 AM 37.1281 -79.3158 206° Southwest 243 280 19,800 -1,500 Descending Washington Center
Sat 09:33:02 AM 37.0611 -79.3583 207° Southwest 229 264 18,000 -1,452 Descending Washington Center
Sat 09:34:06 AM 37.0075 -79.3917 206° Southwest 222 255 16,800 -1,200 Descending Washington Center
Sat 09:35:07 AM 36.9506 -79.4269 206° Southwest 230 265 15,500 -1,463 Descending Washington Center
Sat 09:36:09 AM 36.8747 -79.4739 206° Southwest 255 293 13,800 -1,476 Descending Washington Center
Sat 09:37:13 AM 36.8089 -79.5139 206° Southwest 265 305 12,400 -871 Descending Washington Center
Sat 09:38:13 AM 36.7458 -79.5531 206° Southwest 261 300 12,000 -194 Descending Washington Center
Sat 09:39:17 AM 36.6856 -79.5889 205° Southwest 248 285 12,000  Level Washington Center
Sat 09:40:18 AM 36.6131 -79.6342 207° Southwest 246 283 12,000  Level Washington Center
Sat 09:41:19 AM 36.5514 -79.6700 205° Southwest 247 284 12,000  Level Washington Center
Sat 09:42:22 AM 36.4908 -79.7069 206° Southwest 247 284 12,000  Level Washington Center
Sat 09:43:24 AM 36.4186 -79.7533 207° Southwest 248 285 12,000  Level Washington Center
Sat 09:44:25 AM 36.3678 -79.8033 218° Southwest 242 278 12,000  Level Washington Center
Sat 09:45:29 AM 36.3178 -79.8564 221° Southwest 242 278 12,000  Level Washington Center
Sat 09:46:29 AM 36.2694 -79.9069 220° Southwest 229 264 12,000  Level Washington Center
Sat 09:47:33 AM 36.2211 -79.9581 220° Southwest 229 264 12,000  Level Washington Center
Sat 09:48:34 AM 36.1608 -80.0208 220° Southwest 235 270 12,000  Level Washington Center
Sat 09:49:38 AM 36.1094 -80.0750 220° Southwest 241 277 12,000 -528 Level Washington Center
Sat 09:50:39 AM 36.0528 -80.1336 220° Southwest 248 285 10,900 -1,016 Descending Washington Center
Sat 09:51:42 AM 36.0017 -80.1861 220° Southwest 242 278 9,900 -963 Descending Washington Center
Sat 09:53:46 AM 35.8969 -80.2989 221° Southwest 232 267 7,900 -932 Descending Atlanta Center
Sat 09:54:23 AM 35.8686 -80.3283 220° Southwest 233 268 7,400 -680 Descending Atlanta Center
Sat 09:55:23 AM 35.8181 -80.3767 218° Southwest 221 254 6,800 -595 Descending Atlanta Center
Sat 09:56:24 AM 35.7758 -80.4350 228° Southwest 210 242 6,200 -390 Descending Atlanta Center
Sat 09:57:26 AM 35.7461 -80.4900 236° Southwest 199 229 6,000 -98 Descending Atlanta Center
Sat 09:58:27 AM 35.7186 -80.5500 241° Southwest 194 223 6,000 49 Level Atlanta Center
Sat 09:59:28 AM 35.6933 -80.6072 241° Southwest 190 219 6,100 47 Climbing Atlanta Center
Sat 10:00:35 AM 35.6636 -80.6647 238° Southwest 180 207 6,100  Level Atlanta Center
Sat 10:01:36 AM 35.6336 -80.7197 236° Southwest 179 206 6,100 -397 Level Atlanta Center
Sat 10:02:36 AM 35.6100 -80.7642 237° Southwest 164 189 5,300 -879 Descending Atlanta Center
Sat 10:03:32 AM 35.5900 -80.7981 234° Southwest 130 150 4,400 -615 Descending Atlanta Center
Sat 10:04:33 AM 35.5681 -80.8372 235° Southwest 135 155 4,100 -148 Descending Atlanta Center
Sat 10:05:34 AM 35.5481 -80.8711 234° Southwest 130 150 4,100  Level Atlanta Center
Sat 10:06:41 AM 35.5242 -80.9156 237° Southwest 130 150 4,100 -47 Level Atlanta Center
Sat 10:07:42 AM 35.4933 -80.9394 212° Southwest 146 168 4,000  Descending Atlanta Center
Sat 10:08:37 AM 35.4561 -80.9486 191° South 146 168 4,100 52 Climbing Atlanta Center
Sat 10:09:38 AM 35.4144 -80.9528 185° South 143 165 4,100 -47 Level Atlanta Center
Sat 10:10:46 AM 35.3686 -80.9494 177° South 152 175 4,000 -512 Descending Atlanta Center
Sat 10:11:47 AM 35.3289 -80.9458 176° South 144 166 3,000 -891 Descending Atlanta Center
Sat 10:12:54 AM 35.2869 -80.9447 179° South 138 159 2,100 -797 Descending Atlanta Center
Sat 10:13:55 AM 35.2494 -80.9411 176° South 118 136 1,300 -787 Descending Atlanta Center

Login

Don't have an account? Register now (free) for customized features, flight alerts, and more!